sensor_id;sensor_type;location;lat;lon;timestamp;P1;durP1;ratioP1;P2;durP2;ratioP2
61397;SDS011;47267;48.130;-2.040;2023-05-15T00:01:18;6.28;;;5.05;;
61397;SDS011;47267;48.130;-2.040;2023-05-15T00:03:44;5.10;;;4.60;;
61397;SDS011;47267;48.130;-2.040;2023-05-15T00:06:10;5.18;;;4.70;;
61397;SDS011;47267;48.130;-2.040;2023-05-15T00:08:36;5.50;;;4.88;;
61397;SDS011;47267;48.130;-2.040;2023-05-15T00:11:01;5.47;;;4.68;;
61397;SDS011;47267;48.130;-2.040;2023-05-15T00:13:27;6.80;;;5.00;;
61397;SDS011;47267;48.130;-2.040;2023-05-15T00:15:53;5.82;;;4.80;;
61397;SDS011;47267;48.130;-2.040;2023-05-15T00:18:19;5.18;;;4.70;;
61397;SDS011;47267;48.130;-2.040;2023-05-15T00:20:45;5.45;;;4.72;;
61397;SDS011;47267;48.130;-2.040;2023-05-15T00:23:10;5.35;;;4.70;;
61397;SDS011;47267;48.130;-2.040;2023-05-15T00:25:36;6.13;;;5.20;;
61397;SDS011;47267;48.130;-2.040;2023-05-15T00:28:01;5.07;;;4.57;;
61397;SDS011;47267;48.130;-2.040;2023-05-15T00:30:27;5.22;;;4.55;;
61397;SDS011;47267;48.130;-2.040;2023-05-15T00:32:53;4.88;;;4.43;;
61397;SDS011;47267;48.130;-2.040;2023-05-15T00:35:18;5.88;;;5.18;;
61397;SDS011;47267;48.130;-2.040;2023-05-15T00:37:44;5.43;;;4.93;;
61397;SDS011;47267;48.130;-2.040;2023-05-15T00:40:10;5.47;;;4.80;;
61397;SDS011;47267;48.130;-2.040;2023-05-15T00:42:41;4.70;;;4.30;;
61397;SDS011;47267;48.130;-2.040;2023-05-15T00:45:08;6.82;;;5.22;;
61397;SDS011;47267;48.130;-2.040;2023-05-15T00:47:35;5.32;;;4.82;;
61397;SDS011;47267;48.130;-2.040;2023-05-15T00:50:04;5.25;;;4.80;;
61397;SDS011;47267;48.130;-2.040;2023-05-15T00:52:30;5.13;;;4.63;;
61397;SDS011;47267;48.130;-2.040;2023-05-15T00:54:57;5.10;;;4.60;;
61397;SDS011;47267;48.130;-2.040;2023-05-15T00:57:22;4.75;;;4.30;;
61397;SDS011;47267;48.130;-2.040;2023-05-15T00:59:49;4.95;;;4.40;;
61397;SDS011;47267;48.130;-2.040;2023-05-15T01:02:16;5.32;;;4.82;;
61397;SDS011;47267;48.130;-2.040;2023-05-15T01:04:45;5.10;;;4.35;;
61397;SDS011;47267;48.130;-2.040;2023-05-15T01:07:11;5.25;;;4.75;;
61397;SDS011;47267;48.130;-2.040;2023-05-15T01:09:37;4.97;;;4.47;;
61397;SDS011;47267;48.130;-2.040;2023-05-15T01:12:06;5.30;;;4.80;;
61397;SDS011;47267;48.130;-2.040;2023-05-15T01:14:34;5.13;;;4.63;;
61397;SDS011;47267;48.130;-2.040;2023-05-15T01:16:59;4.65;;;4.25;;
61397;SDS011;47267;48.130;-2.040;2023-05-15T01:19:25;5.28;;;4.63;;
61397;SDS011;47267;48.130;-2.040;2023-05-15T01:33:10;4.63;;;4.22;;
61397;SDS011;47267;48.130;-2.040;2023-05-15T01:36:07;4.43;;;4.03;;
61397;SDS011;47267;48.130;-2.040;2023-05-15T01:38:46;4.68;;;4.28;;
61397;SDS011;47267;48.130;-2.040;2023-05-15T01:41:21;4.72;;;4.32;;
61397;SDS011;47267;48.130;-2.040;2023-05-15T01:44:15;4.50;;;4.10;;
61397;SDS011;47267;48.130;-2.040;2023-05-15T01:46:45;5.18;;;4.35;;
61397;SDS011;47267;48.130;-2.040;2023-05-15T01:49:16;4.85;;;4.45;;
61397;SDS011;47267;48.130;-2.040;2023-05-15T01:51:44;4.47;;;4.07;;
61397;SDS011;47267;48.130;-2.040;2023-05-15T01:54:14;4.60;;;4.20;;
61397;SDS011;47267;48.130;-2.040;2023-05-15T01:56:42;4.72;;;4.32;;
61397;SDS011;47267;48.130;-2.040;2023-05-15T01:59:10;4.20;;;3.80;;
61397;SDS011;47267;48.130;-2.040;2023-05-15T02:01:37;4.60;;;4.00;;
61397;SDS011;47267;48.130;-2.040;2023-05-15T02:04:05;4.65;;;4.25;;
61397;SDS011;47267;48.130;-2.040;2023-05-15T02:06:31;4.75;;;4.30;;
61397;SDS011;47267;48.130;-2.040;2023-05-15T02:08:58;4.72;;;4.20;;
61397;SDS011;47267;48.130;-2.040;2023-05-15T02:11:26;4.60;;;4.20;;
61397;SDS011;47267;48.130;-2.040;2023-05-15T02:13:52;4.20;;;3.83;;
61397;SDS011;47267;48.130;-2.040;2023-05-15T02:16:20;4.13;;;3.75;;
61397;SDS011;47267;48.130;-2.040;2023-05-15T02:18:46;4.25;;;3.85;;
61397;SDS011;47267;48.130;-2.040;2023-05-15T02:21:12;4.60;;;4.07;;
61397;SDS011;47267;48.130;-2.040;2023-05-15T02:23:38;4.63;;;4.07;;
61397;SDS011;47267;48.130;-2.040;2023-05-15T02:26:25;4.22;;;3.88;;
61397;SDS011;47267;48.130;-2.040;2023-05-15T02:37:28;4.13;;;3.72;;
61397;SDS011;47267;48.130;-2.040;2023-05-15T02:39:56;3.80;;;3.50;;
61397;SDS011;47267;48.130;-2.040;2023-05-15T02:42:27;4.45;;;4.05;;
61397;SDS011;47267;48.130;-2.040;2023-05-15T02:44:54;4.60;;;4.20;;
61397;SDS011;47267;48.130;-2.040;2023-05-15T02:47:21;4.07;;;3.60;;
61397;SDS011;47267;48.130;-2.040;2023-05-15T02:49:49;3.80;;;3.40;;
61397;SDS011;47267;48.130;-2.040;2023-05-15T02:52:15;3.75;;;3.45;;
61397;SDS011;47267;48.130;-2.040;2023-05-15T02:54:41;4.03;;;3.63;;
61397;SDS011;47267;48.130;-2.040;2023-05-15T02:57:07;4.03;;;3.63;;
61397;SDS011;47267;48.130;-2.040;2023-05-15T02:59:33;4.20;;;3.70;;
61397;SDS011;47267;48.130;-2.040;2023-05-15T03:01:59;4.32;;;3.72;;
61397;SDS011;47267;48.130;-2.040;2023-05-15T03:04:27;3.80;;;3.50;;
61397;SDS011;47267;48.130;-2.040;2023-05-15T03:06:53;4.03;;;3.63;;
61397;SDS011;47267;48.130;-2.040;2023-05-15T03:09:18;4.13;;;3.72;;
61397;SDS011;47267;48.130;-2.040;2023-05-15T03:11:44;3.85;;;3.55;;
61397;SDS011;47267;48.130;-2.040;2023-05-15T03:14:10;4.55;;;3.80;;
61397;SDS011;47267;48.130;-2.040;2023-05-15T03:16:35;4.00;;;3.60;;
61397;SDS011;47267;48.130;-2.040;2023-05-15T03:19:02;4.10;;;3.70;;
61397;SDS011;47267;48.130;-2.040;2023-05-15T03:21:28;4.55;;;3.85;;
61397;SDS011;47267;48.130;-2.040;2023-05-15T03:23:54;4.10;;;3.70;;
61397;SDS011;47267;48.130;-2.040;2023-05-15T03:26:20;4.10;;;3.70;;
61397;SDS011;47267;48.130;-2.040;2023-05-15T03:28:46;3.78;;;3.38;;
61397;SDS011;47267;48.130;-2.040;2023-05-15T03:31:11;4.20;;;3.80;;
61397;SDS011;47267;48.130;-2.040;2023-05-15T03:33:38;4.00;;;3.58;;
61397;SDS011;47267;48.130;-2.040;2023-05-15T03:36:05;3.55;;;3.25;;
61397;SDS011;47267;48.130;-2.040;2023-05-15T03:38:31;3.90;;;3.50;;
61397;SDS011;47267;48.130;-2.040;2023-05-15T03:40:56;3.60;;;3.30;;
61397;SDS011;47267;48.130;-2.040;2023-05-15T03:43:22;3.92;;;3.53;;
61397;SDS011;47267;48.130;-2.040;2023-05-15T03:45:48;4.22;;;3.83;;
61397;SDS011;47267;48.130;-2.040;2023-05-15T03:48:14;3.50;;;3.20;;
61397;SDS011;47267;48.130;-2.040;2023-05-15T03:50:39;4.03;;;3.63;;
61397;SDS011;47267;48.130;-2.040;2023-05-15T03:53:05;4.57;;;3.50;;
61397;SDS011;47267;48.130;-2.040;2023-05-15T03:55:31;4.55;;;3.55;;
61397;SDS011;47267;48.130;-2.040;2023-05-15T03:57:57;3.42;;;3.13;;
61397;SDS011;47267;48.130;-2.040;2023-05-15T04:00:23;3.80;;;3.40;;
61397;SDS011;47267;48.130;-2.040;2023-05-15T04:02:48;3.63;;;3.33;;
61397;SDS011;47267;48.130;-2.040;2023-05-15T04:05:14;3.97;;;3.58;;
61397;SDS011;47267;48.130;-2.040;2023-05-15T04:07:40;3.55;;;3.25;;
61397;SDS011;47267;48.130;-2.040;2023-05-15T04:10:06;3.70;;;3.40;;
61397;SDS011;47267;48.130;-2.040;2023-05-15T04:12:33;3.88;;;3.58;;
61397;SDS011;47267;48.130;-2.040;2023-05-15T04:15:12;3.50;;;3.20;;
61397;SDS011;47267;48.130;-2.040;2023-05-15T04:17:40;3.90;;;3.50;;
61397;SDS011;47267;48.130;-2.040;2023-05-15T04:20:06;4.05;;;3.65;;
61397;SDS011;47267;48.130;-2.040;2023-05-15T04:22:32;3.33;;;2.90;;
61397;SDS011;47267;48.130;-2.040;2023-05-15T04:24:58;3.88;;;3.58;;
61397;SDS011;47267;48.130;-2.040;2023-05-15T04:27:24;3.67;;;3.38;;
61397;SDS011;47267;48.130;-2.040;2023-05-15T04:29:50;4.20;;;3.10;;
61397;SDS011;47267;48.130;-2.040;2023-05-15T04:32:16;4.05;;;3.67;;
61397;SDS011;47267;48.130;-2.040;2023-05-15T04:34:42;3.65;;;3.35;;
61397;SDS011;47267;48.130;-2.040;2023-05-15T04:37:07;3.30;;;3.00;;
61397;SDS011;47267;48.130;-2.040;2023-05-15T04:39:34;3.65;;;3.35;;
61397;SDS011;47267;48.130;-2.040;2023-05-15T04:42:00;5.20;;;3.28;;
61397;SDS011;47267;48.130;-2.040;2023-05-15T04:44:26;3.25;;;2.95;;
61397;SDS011;47267;48.130;-2.040;2023-05-15T04:46:52;3.38;;;3.08;;
61397;SDS011;47267;48.130;-2.040;2023-05-15T04:49:17;3.60;;;3.30;;
61397;SDS011;47267;48.130;-2.040;2023-05-15T04:51:43;4.18;;;3.28;;
61397;SDS011;47267;48.130;-2.040;2023-05-15T04:54:08;3.60;;;3.30;;
61397;SDS011;47267;48.130;-2.040;2023-05-15T04:56:34;3.53;;;3.05;;
61397;SDS011;47267;48.130;-2.040;2023-05-15T04:59:00;4.32;;;3.00;;
61397;SDS011;47267;48.130;-2.040;2023-05-15T05:01:26;3.17;;;2.88;;
61397;SDS011;47267;48.130;-2.040;2023-05-15T05:03:52;3.35;;;3.05;;
61397;SDS011;47267;48.130;-2.040;2023-05-15T05:06:17;3.08;;;2.78;;
61397;SDS011;47267;48.130;-2.040;2023-05-15T05:08:43;3.35;;;3.05;;
61397;SDS011;47267;48.130;-2.040;2023-05-15T05:11:09;4.82;;;2.80;;
61397;SDS011;47267;48.130;-2.040;2023-05-15T05:13:34;3.03;;;2.72;;
61397;SDS011;47267;48.130;-2.040;2023-05-15T05:16:00;3.67;;;2.90;;
61397;SDS011;47267;48.130;-2.040;2023-05-15T05:18:28;2.80;;;2.60;;
61397;SDS011;47267;48.130;-2.040;2023-05-15T05:21:00;3.53;;;2.97;;
61397;SDS011;47267;48.130;-2.040;2023-05-15T05:23:27;3.22;;;2.97;;
61397;SDS011;47267;48.130;-2.040;2023-05-15T05:25:53;3.38;;;2.90;;
61397;SDS011;47267;48.130;-2.040;2023-05-15T05:28:19;2.90;;;2.65;;
61397;SDS011;47267;48.130;-2.040;2023-05-15T05:30:44;3.67;;;3.22;;
61397;SDS011;47267;48.130;-2.040;2023-05-15T05:33:11;3.33;;;2.80;;
61397;SDS011;47267;48.130;-2.040;2023-05-15T05:35:37;3.45;;;3.03;;
61397;SDS011;47267;48.130;-2.040;2023-05-15T05:38:03;3.42;;;3.13;;
61397;SDS011;47267;48.130;-2.040;2023-05-15T05:40:28;4.43;;;3.28;;
61397;SDS011;47267;48.130;-2.040;2023-05-15T05:42:57;3.40;;;3.10;;
61397;SDS011;47267;48.130;-2.040;2023-05-15T05:45:26;3.50;;;3.20;;
61397;SDS011;47267;48.130;-2.040;2023-05-15T05:47:54;3.40;;;2.95;;
61397;SDS011;47267;48.130;-2.040;2023-05-15T05:50:20;3.33;;;3.03;;
61397;SDS011;47267;48.130;-2.040;2023-05-15T05:52:46;3.50;;;3.20;;
61397;SDS011;47267;48.130;-2.040;2023-05-15T05:55:12;3.95;;;2.90;;
61397;SDS011;47267;48.130;-2.040;2023-05-15T05:57:38;3.58;;;3.15;;
61397;SDS011;47267;48.130;-2.040;2023-05-15T06:00:03;3.45;;;3.15;;
61397;SDS011;47267;48.130;-2.040;2023-05-15T06:02:33;4.03;;;3.28;;
61397;SDS011;47267;48.130;-2.040;2023-05-15T06:05:00;4.13;;;3.50;;
61397;SDS011;47267;48.130;-2.040;2023-05-15T06:07:25;4.45;;;3.10;;
61397;SDS011;47267;48.130;-2.040;2023-05-15T06:09:52;3.75;;;2.85;;
61397;SDS011;47267;48.130;-2.040;2023-05-15T06:12:17;4.38;;;3.38;;
61397;SDS011;47267;48.130;-2.040;2023-05-15T06:14:43;4.75;;;3.40;;
61397;SDS011;47267;48.130;-2.040;2023-05-15T06:17:10;4.85;;;3.25;;
61397;SDS011;47267;48.130;-2.040;2023-05-15T06:19:36;4.57;;;3.55;;
61397;SDS011;47267;48.130;-2.040;2023-05-15T06:22:01;4.85;;;3.45;;
61397;SDS011;47267;48.130;-2.040;2023-05-15T06:24:27;6.43;;;3.67;;
61397;SDS011;47267;48.130;-2.040;2023-05-15T06:26:53;5.32;;;3.50;;
61397;SDS011;47267;48.130;-2.040;2023-05-15T06:29:18;5.35;;;3.50;;
61397;SDS011;47267;48.130;-2.040;2023-05-15T06:31:44;4.93;;;3.53;;
61397;SDS011;47267;48.130;-2.040;2023-05-15T06:34:10;4.65;;;3.60;;
61397;SDS011;47267;48.130;-2.040;2023-05-15T06:36:36;6.13;;;3.90;;
61397;SDS011;47267;48.130;-2.040;2023-05-15T06:39:01;8.27;;;4.15;;
61397;SDS011;47267;48.130;-2.040;2023-05-15T06:41:27;6.18;;;3.95;;
61397;SDS011;47267;48.130;-2.040;2023-05-15T06:43:53;4.85;;;3.55;;
61397;SDS011;47267;48.130;-2.040;2023-05-15T06:46:19;5.47;;;3.75;;
61397;SDS011;47267;48.130;-2.040;2023-05-15T06:48:46;6.15;;;4.15;;
61397;SDS011;47267;48.130;-2.040;2023-05-15T06:51:12;4.72;;;3.20;;
61397;SDS011;47267;48.130;-2.040;2023-05-15T06:53:37;8.18;;;4.15;;
61397;SDS011;47267;48.130;-2.040;2023-05-15T06:56:04;3.85;;;3.25;;
61397;SDS011;47267;48.130;-2.040;2023-05-15T06:58:30;6.22;;;3.78;;
61397;SDS011;47267;48.130;-2.040;2023-05-15T07:00:55;7.25;;;4.13;;
61397;SDS011;47267;48.130;-2.040;2023-05-15T07:03:21;5.90;;;3.90;;
61397;SDS011;47267;48.130;-2.040;2023-05-15T07:05:47;6.00;;;3.70;;
61397;SDS011;47267;48.130;-2.040;2023-05-15T07:08:12;3.65;;;3.25;;
61397;SDS011;47267;48.130;-2.040;2023-05-15T07:10:38;5.65;;;3.40;;
61397;SDS011;47267;48.130;-2.040;2023-05-15T07:13:04;4.60;;;3.55;;
61397;SDS011;47267;48.130;-2.040;2023-05-15T07:15:29;4.53;;;3.58;;
61397;SDS011;47267;48.130;-2.040;2023-05-15T07:17:55;5.43;;;3.67;;
61397;SDS011;47267;48.130;-2.040;2023-05-15T07:20:21;4.85;;;3.63;;
61397;SDS011;47267;48.130;-2.040;2023-05-15T07:22:46;4.75;;;3.25;;
61397;SDS011;47267;48.130;-2.040;2023-05-15T07:25:12;3.90;;;3.50;;
61397;SDS011;47267;48.130;-2.040;2023-05-15T07:27:38;4.90;;;3.60;;
61397;SDS011;47267;48.130;-2.040;2023-05-15T07:30:03;6.47;;;3.58;;
61397;SDS011;47267;48.130;-2.040;2023-05-15T07:32:30;3.97;;;3.15;;
61397;SDS011;47267;48.130;-2.040;2023-05-15T07:34:56;4.35;;;3.38;;
61397;SDS011;47267;48.130;-2.040;2023-05-15T07:37:22;4.45;;;3.60;;
61397;SDS011;47267;48.130;-2.040;2023-05-15T07:39:48;4.03;;;3.35;;
61397;SDS011;47267;48.130;-2.040;2023-05-15T07:42:13;5.07;;;3.53;;
61397;SDS011;47267;48.130;-2.040;2023-05-15T07:44:39;4.28;;;3.63;;
61397;SDS011;47267;48.130;-2.040;2023-05-15T07:47:05;4.63;;;3.50;;
61397;SDS011;47267;48.130;-2.040;2023-05-15T07:49:30;4.47;;;3.63;;
61397;SDS011;47267;48.130;-2.040;2023-05-15T07:51:56;4.18;;;3.00;;
61397;SDS011;47267;48.130;-2.040;2023-05-15T07:54:22;5.40;;;3.47;;
61397;SDS011;47267;48.130;-2.040;2023-05-15T07:56:47;4.57;;;2.90;;
61397;SDS011;47267;48.130;-2.040;2023-05-15T07:59:13;4.63;;;3.50;;
61397;SDS011;47267;48.130;-2.040;2023-05-15T08:01:39;4.78;;;3.17;;
61397;SDS011;47267;48.130;-2.040;2023-05-15T08:04:06;4.63;;;3.67;;
61397;SDS011;47267;48.130;-2.040;2023-05-15T08:06:32;4.57;;;3.40;;
61397;SDS011;47267;48.130;-2.040;2023-05-15T08:08:59;5.30;;;3.22;;
61397;SDS011;47267;48.130;-2.040;2023-05-15T08:11:24;4.13;;;3.55;;
61397;SDS011;47267;48.130;-2.040;2023-05-15T08:13:50;4.45;;;3.22;;
61397;SDS011;47267;48.130;-2.040;2023-05-15T08:16:17;4.18;;;3.22;;
61397;SDS011;47267;48.130;-2.040;2023-05-15T08:18:42;3.50;;;3.20;;
61397;SDS011;47267;48.130;-2.040;2023-05-15T08:21:08;5.53;;;3.00;;
61397;SDS011;47267;48.130;-2.040;2023-05-15T08:23:35;3.90;;;2.80;;
61397;SDS011;47267;48.130;-2.040;2023-05-15T08:26:00;3.42;;;3.13;;
61397;SDS011;47267;48.130;-2.040;2023-05-15T08:28:26;4.30;;;3.10;;
61397;SDS011;47267;48.130;-2.040;2023-05-15T08:30:52;3.60;;;2.85;;
61397;SDS011;47267;48.130;-2.040;2023-05-15T08:33:17;3.35;;;2.78;;
61397;SDS011;47267;48.130;-2.040;2023-05-15T08:35:43;4.13;;;3.28;;
61397;SDS011;47267;48.130;-2.040;2023-05-15T08:38:09;4.15;;;3.38;;
61397;SDS011;47267;48.130;-2.040;2023-05-15T08:40:34;4.35;;;3.10;;
61397;SDS011;47267;48.130;-2.040;2023-05-15T08:43:04;3.78;;;3.15;;
61397;SDS011;47267;48.130;-2.040;2023-05-15T08:45:35;3.88;;;2.50;;
61397;SDS011;47267;48.130;-2.040;2023-05-15T08:48:00;3.88;;;3.15;;
61397;SDS011;47267;48.130;-2.040;2023-05-15T08:50:32;4.28;;;3.20;;
61397;SDS011;47267;48.130;-2.040;2023-05-15T08:52:58;4.13;;;2.90;;
61397;SDS011;47267;48.130;-2.040;2023-05-15T08:55:25;3.75;;;2.80;;
61397;SDS011;47267;48.130;-2.040;2023-05-15T08:57:52;5.55;;;3.25;;
61397;SDS011;47267;48.130;-2.040;2023-05-15T09:00:19;3.63;;;3.03;;
61397;SDS011;47267;48.130;-2.040;2023-05-15T09:02:46;3.95;;;3.10;;
61397;SDS011;47267;48.130;-2.040;2023-05-15T09:05:12;4.97;;;3.03;;
61397;SDS011;47267;48.130;-2.040;2023-05-15T09:07:38;3.13;;;2.83;;
61397;SDS011;47267;48.130;-2.040;2023-05-15T09:10:07;3.40;;;3.00;;
61397;SDS011;47267;48.130;-2.040;2023-05-15T09:12:34;4.00;;;2.45;;
61397;SDS011;47267;48.130;-2.040;2023-05-15T09:15:09;3.58;;;2.92;;
61397;SDS011;47267;48.130;-2.040;2023-05-15T09:17:39;3.67;;;3.03;;
61397;SDS011;47267;48.130;-2.040;2023-05-15T09:20:10;4.18;;;2.90;;
61397;SDS011;47267;48.130;-2.040;2023-05-15T09:22:52;3.42;;;2.78;;
61397;SDS011;47267;48.130;-2.040;2023-05-15T09:25:35;3.85;;;2.65;;
61397;SDS011;47267;48.130;-2.040;2023-05-15T09:28:08;3.25;;;2.63;;
61397;SDS011;47267;48.130;-2.040;2023-05-15T09:30:38;3.35;;;2.88;;
61397;SDS011;47267;48.130;-2.040;2023-05-15T09:33:06;3.28;;;2.50;;
61397;SDS011;47267;48.130;-2.040;2023-05-15T09:35:34;3.53;;;2.67;;
61397;SDS011;47267;48.130;-2.040;2023-05-15T09:38:02;2.83;;;2.53;;
61397;SDS011;47267;48.130;-2.040;2023-05-15T09:40:32;3.08;;;2.78;;
61397;SDS011;47267;48.130;-2.040;2023-05-15T09:42:58;3.83;;;2.90;;
61397;SDS011;47267;48.130;-2.040;2023-05-15T09:45:24;2.75;;;2.47;;
61397;SDS011;47267;48.130;-2.040;2023-05-15T09:47:51;3.25;;;2.50;;
61397;SDS011;47267;48.130;-2.040;2023-05-15T09:50:20;3.10;;;2.50;;
61397;SDS011;47267;48.130;-2.040;2023-05-15T09:52:47;4.03;;;2.30;;
61397;SDS011;47267;48.130;-2.040;2023-05-15T09:55:14;3.10;;;2.78;;
61397;SDS011;47267;48.130;-2.040;2023-05-15T09:57:41;2.75;;;2.30;;
61397;SDS011;47267;48.130;-2.040;2023-05-15T10:00:07;3.10;;;2.40;;
61397;SDS011;47267;48.130;-2.040;2023-05-15T10:02:38;2.35;;;2.15;;
61397;SDS011;47267;48.130;-2.040;2023-05-15T10:05:06;2.30;;;2.10;;
61397;SDS011;47267;48.130;-2.040;2023-05-15T10:07:33;3.60;;;2.60;;
61397;SDS011;47267;48.130;-2.040;2023-05-15T10:10:00;2.30;;;2.10;;
61397;SDS011;47267;48.130;-2.040;2023-05-15T10:12:28;2.45;;;2.25;;
61397;SDS011;47267;48.130;-2.040;2023-05-15T10:14:55;4.78;;;2.50;;
61397;SDS011;47267;48.130;-2.040;2023-05-15T10:17:22;3.53;;;2.35;;
61397;SDS011;47267;48.130;-2.040;2023-05-15T10:19:49;2.42;;;2.22;;
61397;SDS011;47267;48.130;-2.040;2023-05-15T10:22:17;2.80;;;2.22;;
61397;SDS011;47267;48.130;-2.040;2023-05-15T10:24:47;2.10;;;1.90;;
61397;SDS011;47267;48.130;-2.040;2023-05-15T10:27:16;2.55;;;2.20;;
61397;SDS011;47267;48.130;-2.040;2023-05-15T10:29:44;3.53;;;2.20;;
61397;SDS011;47267;48.130;-2.040;2023-05-15T10:32:11;2.42;;;2.05;;
61397;SDS011;47267;48.130;-2.040;2023-05-15T10:34:37;2.10;;;1.90;;
61397;SDS011;47267;48.130;-2.040;2023-05-15T10:37:03;3.20;;;2.13;;
61397;SDS011;47267;48.130;-2.040;2023-05-15T10:39:30;2.13;;;1.92;;
61397;SDS011;47267;48.130;-2.040;2023-05-15T10:41:56;3.42;;;1.92;;
61397;SDS011;47267;48.130;-2.040;2023-05-15T10:44:24;2.83;;;1.98;;
61397;SDS011;47267;48.130;-2.040;2023-05-15T10:46:49;3.20;;;1.95;;
61397;SDS011;47267;48.130;-2.040;2023-05-15T10:49:16;2.00;;;1.80;;
61397;SDS011;47267;48.130;-2.040;2023-05-15T10:51:41;2.85;;;1.65;;
61397;SDS011;47267;48.130;-2.040;2023-05-15T10:54:07;2.28;;;1.70;;
61397;SDS011;47267;48.130;-2.040;2023-05-15T10:56:33;1.98;;;1.70;;
61397;SDS011;47267;48.130;-2.040;2023-05-15T10:59:05;2.35;;;1.70;;
61397;SDS011;47267;48.130;-2.040;2023-05-15T11:01:33;2.50;;;1.98;;
61397;SDS011;47267;48.130;-2.040;2023-05-15T11:04:03;2.95;;;1.63;;
61397;SDS011;47267;48.130;-2.040;2023-05-15T11:06:40;2.60;;;1.67;;
61397;SDS011;47267;48.130;-2.040;2023-05-15T11:11:55;2.03;;;1.70;;
61397;SDS011;47267;48.130;-2.040;2023-05-15T11:14:24;3.00;;;1.80;;
61397;SDS011;47267;48.130;-2.040;2023-05-15T11:24:48;2.38;;;1.65;;
61397;SDS011;47267;48.130;-2.040;2023-05-15T11:27:20;3.72;;;1.80;;
61397;SDS011;47267;48.130;-2.040;2023-05-15T11:30:04;4.00;;;1.92;;
61397;SDS011;47267;48.130;-2.040;2023-05-15T11:35:11;4.28;;;1.73;;
61397;SDS011;47267;48.130;-2.040;2023-05-15T11:37:56;3.13;;;1.70;;
61397;SDS011;47267;48.130;-2.040;2023-05-15T11:40:23;3.15;;;1.70;;
61397;SDS011;47267;48.130;-2.040;2023-05-15T11:45:42;2.42;;;1.60;;
61397;SDS011;47267;48.130;-2.040;2023-05-15T11:48:13;3.05;;;1.50;;
61397;SDS011;47267;48.130;-2.040;2023-05-15T11:50:40;2.93;;;1.70;;
61397;SDS011;47267;48.130;-2.040;2023-05-15T11:53:07;6.75;;;1.80;;
61397;SDS011;47267;48.130;-2.040;2023-05-15T11:55:34;3.03;;;1.70;;
61397;SDS011;47267;48.130;-2.040;2023-05-15T11:58:02;2.45;;;1.70;;
61397;SDS011;47267;48.130;-2.040;2023-05-15T12:00:28;3.10;;;1.88;;
61397;SDS011;47267;48.130;-2.040;2023-05-15T12:02:54;2.50;;;1.70;;
61397;SDS011;47267;48.130;-2.040;2023-05-15T12:05:21;3.33;;;1.60;;
61397;SDS011;47267;48.130;-2.040;2023-05-15T12:07:47;3.72;;;1.73;;
61397;SDS011;47267;48.130;-2.040;2023-05-15T12:10:13;3.40;;;1.60;;
61397;SDS011;47267;48.130;-2.040;2023-05-15T12:12:39;3.20;;;1.73;;
61397;SDS011;47267;48.130;-2.040;2023-05-15T12:15:10;4.05;;;1.83;;
61397;SDS011;47267;48.130;-2.040;2023-05-15T12:17:37;2.13;;;1.50;;
61397;SDS011;47267;48.130;-2.040;2023-05-15T12:20:05;4.07;;;2.10;;
61397;SDS011;47267;48.130;-2.040;2023-05-15T12:22:38;3.88;;;2.10;;
61397;SDS011;47267;48.130;-2.040;2023-05-15T12:25:10;3.58;;;1.83;;
61397;SDS011;47267;48.130;-2.040;2023-05-15T12:27:39;3.50;;;1.80;;
61397;SDS011;47267;48.130;-2.040;2023-05-15T12:30:05;5.30;;;1.73;;
61397;SDS011;47267;48.130;-2.040;2023-05-15T12:32:32;4.57;;;2.03;;
61397;SDS011;47267;48.130;-2.040;2023-05-15T12:35:00;2.53;;;1.70;;
61397;SDS011;47267;48.130;-2.040;2023-05-15T12:37:29;3.60;;;2.13;;
61397;SDS011;47267;48.130;-2.040;2023-05-15T12:39:59;4.35;;;1.92;;
61397;SDS011;47267;48.130;-2.040;2023-05-15T12:42:26;4.55;;;1.55;;
61397;SDS011;47267;48.130;-2.040;2023-05-15T12:44:53;4.07;;;1.80;;
61397;SDS011;47267;48.130;-2.040;2023-05-15T12:47:22;4.95;;;2.22;;
61397;SDS011;47267;48.130;-2.040;2023-05-15T12:49:49;5.70;;;1.80;;
61397;SDS011;47267;48.130;-2.040;2023-05-15T12:52:19;3.90;;;1.58;;
61397;SDS011;47267;48.130;-2.040;2023-05-15T12:54:44;4.60;;;1.80;;
61397;SDS011;47267;48.130;-2.040;2023-05-15T12:57:11;6.13;;;2.22;;
61397;SDS011;47267;48.130;-2.040;2023-05-15T12:59:38;5.28;;;1.90;;
61397;SDS011;47267;48.130;-2.040;2023-05-15T13:02:08;4.85;;;1.88;;
61397;SDS011;47267;48.130;-2.040;2023-05-15T13:04:36;5.03;;;1.80;;
61397;SDS011;47267;48.130;-2.040;2023-05-15T13:07:01;5.43;;;1.88;;
61397;SDS011;47267;48.130;-2.040;2023-05-15T13:09:28;4.20;;;1.90;;
61397;SDS011;47267;48.130;-2.040;2023-05-15T13:11:54;4.72;;;2.13;;
61397;SDS011;47267;48.130;-2.040;2023-05-15T13:14:20;4.32;;;1.95;;
61397;SDS011;47267;48.130;-2.040;2023-05-15T13:16:51;3.30;;;1.77;;
61397;SDS011;47267;48.130;-2.040;2023-05-15T13:19:17;4.20;;;1.70;;
61397;SDS011;47267;48.130;-2.040;2023-05-15T13:21:43;4.90;;;1.92;;
61397;SDS011;47267;48.130;-2.040;2023-05-15T13:24:09;5.28;;;1.90;;
61397;SDS011;47267;48.130;-2.040;2023-05-15T13:26:35;6.13;;;1.98;;
61397;SDS011;47267;48.130;-2.040;2023-05-15T13:29:01;5.75;;;1.83;;
61397;SDS011;47267;48.130;-2.040;2023-05-15T13:31:27;4.53;;;1.52;;
61397;SDS011;47267;48.130;-2.040;2023-05-15T13:33:52;6.97;;;2.10;;
61397;SDS011;47267;48.130;-2.040;2023-05-15T13:36:18;6.20;;;2.42;;
61397;SDS011;47267;48.130;-2.040;2023-05-15T13:38:44;5.25;;;1.60;;
61397;SDS011;47267;48.130;-2.040;2023-05-15T13:41:09;6.38;;;1.90;;
61397;SDS011;47267;48.130;-2.040;2023-05-15T13:43:35;2.88;;;1.55;;
61397;SDS011;47267;48.130;-2.040;2023-05-15T13:46:01;5.47;;;2.00;;
61397;SDS011;47267;48.130;-2.040;2023-05-15T13:48:27;4.70;;;1.65;;
61397;SDS011;47267;48.130;-2.040;2023-05-15T13:50:52;4.38;;;1.70;;
61397;SDS011;47267;48.130;-2.040;2023-05-15T13:53:18;5.28;;;1.80;;
61397;SDS011;47267;48.130;-2.040;2023-05-15T13:55:44;4.30;;;1.70;;
61397;SDS011;47267;48.130;-2.040;2023-05-15T13:58:10;6.18;;;1.98;;
61397;SDS011;47267;48.130;-2.040;2023-05-15T14:00:37;6.78;;;1.67;;
61397;SDS011;47267;48.130;-2.040;2023-05-15T14:03:03;8.27;;;2.70;;
61397;SDS011;47267;48.130;-2.040;2023-05-15T14:05:30;4.70;;;1.80;;
61397;SDS011;47267;48.130;-2.040;2023-05-15T14:07:56;5.32;;;1.95;;
61397;SDS011;47267;48.130;-2.040;2023-05-15T14:10:22;7.63;;;2.20;;
61397;SDS011;47267;48.130;-2.040;2023-05-15T14:12:50;6.47;;;2.10;;
61397;SDS011;47267;48.130;-2.040;2023-05-15T14:15:16;4.97;;;1.52;;
61397;SDS011;47267;48.130;-2.040;2023-05-15T14:17:42;3.40;;;1.85;;
61397;SDS011;47267;48.130;-2.040;2023-05-15T14:20:08;6.35;;;1.60;;
61397;SDS011;47267;48.130;-2.040;2023-05-15T14:22:35;3.92;;;1.58;;
61397;SDS011;47267;48.130;-2.040;2023-05-15T14:25:02;3.70;;;1.48;;
61397;SDS011;47267;48.130;-2.040;2023-05-15T14:27:29;7.30;;;2.28;;
61397;SDS011;47267;48.130;-2.040;2023-05-15T14:29:55;6.30;;;1.83;;
61397;SDS011;47267;48.130;-2.040;2023-05-15T14:32:21;4.20;;;1.80;;
61397;SDS011;47267;48.130;-2.040;2023-05-15T14:34:48;5.47;;;1.77;;
61397;SDS011;47267;48.130;-2.040;2023-05-15T14:37:13;3.45;;;1.30;;
61397;SDS011;47267;48.130;-2.040;2023-05-15T14:39:39;7.72;;;2.15;;
61397;SDS011;47267;48.130;-2.040;2023-05-15T14:42:05;5.53;;;1.70;;
61397;SDS011;47267;48.130;-2.040;2023-05-15T14:44:31;3.55;;;1.73;;
61397;SDS011;47267;48.130;-2.040;2023-05-15T14:47:06;6.18;;;1.92;;
61397;SDS011;47267;48.130;-2.040;2023-05-15T14:49:33;6.22;;;1.80;;
61397;SDS011;47267;48.130;-2.040;2023-05-15T14:52:00;6.03;;;1.55;;
61397;SDS011;47267;48.130;-2.040;2023-05-15T14:54:26;5.90;;;1.75;;
61397;SDS011;47267;48.130;-2.040;2023-05-15T14:56:52;4.20;;;1.98;;
61397;SDS011;47267;48.130;-2.040;2023-05-15T14:59:18;6.35;;;1.85;;
61397;SDS011;47267;48.130;-2.040;2023-05-15T15:01:44;4.43;;;1.90;;
61397;SDS011;47267;48.130;-2.040;2023-05-15T15:04:10;5.95;;;1.40;;
61397;SDS011;47267;48.130;-2.040;2023-05-15T15:06:36;5.57;;;1.80;;
61397;SDS011;47267;48.130;-2.040;2023-05-15T15:09:01;6.15;;;1.52;;